Skip Navigation Links Skip Navigation Links

Current Weather

Washington County, Washington, Penn.

For information only: do not use for flight planning or navigation.
Latest weather
Observation time Tuesday, January 26, 2021 7:56 PM EST
Local time Tuesday, January 26, 2021 8:22 PM EST
Flight conditions Marginal Visual Meteorological Conditions
Winds
Wind direction West (260°)
Wind speed 13 mph
Visibility 8 mi.
Present weather light rain
Sky condition
Ceiling 1,200 ft. overcast
Cloud layer overcast 1,200 ft.
Temperature 40°F
Dewpoint 38°F
Altimeter 29.87 in.Hg
Precipitation
Precipitation last hour 0.02 in.
Derived measurements
Relative humidity 93%
Wind chill 33°F
Density altitude 74 ft.
Sea-level pressure 29.90 in.Hg
Remarks
Fully automated report.
Automated weather observing station with precipitation discriminator.
METAR KAFJ 270056Z AUTO 26011KT 8SM -RA OVC012 04/03 A2987 RMK AO2 SLP124 P0002 T00440033

Settings

Location code

InnerDrive.Weather 4.0.6770.0 Release CLR 4.0.30319.42000
Copyright ©2018 Inner Drive Technology. All rights reserved. Portions Copyright ©1986-2018 David Braverman.

Find weather

Site navigation


Skip Navigation Links

Place info

Page info

PayPal - The safer, easier way to pay online!

Return home.

Copyright ©2021 Inner Drive Technology. Purveyors of fine, hand-crafted computer software. Page printed 2021-01-27T01:22:19 UTC.